Time;durP1;ratioP1;P1;durP2;ratioP2;P2;SDS_P1;SDS_P2;PMS_P1;PMS_P2;Temp;Humidity;BMP_temperature;BMP_pressure;BME280_temperature;BME280_humidity;BME280_pressure;Samples;Min_cycle;Max_cycle;Signal;HPM_P1;HPM_P2
2020/12/18 00:04:00;;;;;;;3.85;1.50;;;;;;;4.79;68.54;99576.13;10498824;28;20155;-55
2020/12/18 00:09:02;;;;;;;4.13;1.40;;;;;;;4.81;68.69;99575.09;10499447;28;20056;-53
2020/12/18 00:14:05;;;;;;;3.40;1.30;;;;;;;4.78;68.49;99575.28;10498660;28;20053;-55
2020/12/18 00:19:07;;;;;;;3.73;1.30;;;;;;;4.85;68.60;99576.56;10498042;28;20055;-53
2020/12/18 00:24:08;;;;;;;3.95;1.33;;;;;;;4.98;68.32;99566.19;10496970;28;20458;-54
2020/12/18 00:29:11;;;;;;;4.45;1.35;;;;;;;5.14;67.94;99567.81;10497542;28;20048;-54
2020/12/18 00:34:12;;;;;;;5.30;1.45;;;;;;;5.21;67.53;99572.53;10497180;28;20056;-53
2020/12/18 00:39:14;;;;;;;4.00;1.50;;;;;;;5.13;67.38;99584.41;10496841;28;20052;-54
2020/12/18 00:44:17;;;;;;;4.35;1.42;;;;;;;5.13;67.06;99577.41;10498971;28;20400;-58
2020/12/18 00:49:18;;;;;;;2.75;0.95;;;;;;;5.19;67.41;99573.56;10502871;28;20064;-55
2020/12/18 00:54:20;;;;;;;2.47;0.73;;;;;;;5.18;66.83;99571.91;10504772;28;20146;-59
2020/12/18 00:59:23;;;;;;;2.72;1.00;;;;;;;5.03;67.52;99577.16;10503500;28;20087;-55
2020/12/18 01:04:25;;;;;;;3.17;1.08;;;;;;;4.91;67.31;99574.50;10504438;28;20055;-53
2020/12/18 01:09:27;;;;;;;2.22;0.90;;;;;;;4.93;67.93;99576.09;10502755;28;20048;-54
2020/12/18 01:14:37;;;;;;;4.05;1.00;;;;;;;4.96;67.25;99580.28;10503414;28;20091;-55
2020/12/18 01:19:39;;;;;;;2.77;1.00;;;;;;;4.92;67.83;99584.81;10502930;28;20524;-53
2020/12/18 01:24:41;;;;;;;2.53;0.90;;;;;;;4.92;67.39;99587.44;10503396;28;20048;-53
2020/12/18 01:29:45;;;;;;;4.22;1.00;;;;;;;4.87;67.99;99589.50;10504798;28;20048;-55
2020/12/18 01:34:48;;;;;;;3.22;1.23;;;;;;;4.89;67.19;99597.22;10544798;28;20138;-54
2020/12/18 01:39:54;;;;;;;3.15;1.27;;;;;;;4.99;67.77;99599.16;10511118;28;20048;-55
2020/12/18 01:45:04;;;;;;;3.50;1.08;;;;;;;4.94;67.30;99595.16;10502291;28;20431;-53
2020/12/18 01:50:26;;;;;;;3.08;1.30;;;;;;;5.05;66.49;99601.38;10503047;28;20073;-56
2020/12/18 01:55:33;;;;;;;3.05;1.15;;;;;;;5.05;66.63;99597.94;10501700;28;20063;-52
2020/12/18 02:00:38;;;;;;;3.35;1.20;;;;;;;4.99;66.63;99612.19;10500749;28;20094;-52
2020/12/18 02:05:42;;;;;;;3.30;1.20;;;;;;;5.00;66.86;99606.03;10501655;28;20099;-55
2020/12/18 02:10:59;;;;;;;2.70;1.00;;;;;;;5.07;66.36;99591.66;10501037;28;20485;-54
2020/12/18 02:16:05;;;;;;;4.10;1.35;;;;;;;4.83;66.24;99598.44;10506158;28;20060;-55
2020/12/18 02:21:14;;;;;;;3.08;1.10;;;;;;;4.51;66.38;99609.09;10501578;28;20048;-53
2020/12/18 02:26:18;;;;;;;4.05;1.63;;;;;;;4.35;66.71;99613.56;10500567;28;20067;-55
2020/12/18 02:31:23;;;;;;;2.90;1.00;;;;;;;4.25;66.44;99617.66;10501719;28;20052;-54
2020/12/18 02:36:57;;;;;;;3.80;1.23;;;;;;;4.18;66.92;99617.19;10490014;28;20048;-52
2020/12/18 02:42:01;;;;;;;4.15;1.58;;;;;;;4.22;66.95;99628.25;10500398;28;20508;-55
2020/12/18 02:47:21;;;;;;;3.83;1.48;;;;;;;4.35;67.13;99631.78;10502208;28;20591;-53
2020/12/18 02:52:24;;;;;;;4.47;1.50;;;;;;;4.45;67.16;99635.50;10499969;28;20072;-56
2020/12/18 02:57:47;;;;;;;4.15;1.73;;;;;;;4.49;67.19;99650.00;10510389;28;20098;-54
2020/12/18 03:03:02;;;;;;;3.35;1.33;;;;;;;4.48;66.90;99635.31;10484894;28;20091;-55
2020/12/18 03:08:05;;;;;;;4.03;1.60;;;;;;;4.44;66.39;99648.63;10457591;28;20076;-52
2020/12/18 03:13:09;;;;;;;3.73;1.53;;;;;;;4.45;66.87;99645.91;10455964;28;20505;-53
2020/12/18 03:18:11;;;;;;;3.72;1.50;;;;;;;4.46;66.39;99652.78;10489521;28;20083;-54
2020/12/18 03:23:14;;;;;;;3.30;1.30;;;;;;;4.41;65.79;99662.66;10498052;28;20094;-53
2020/12/18 03:28:43;;;;;;;4.07;1.42;;;;;;;4.40;66.84;99673.97;10497649;28;20068;-53
2020/12/18 03:33:46;;;;;;;3.20;1.40;;;;;;;4.34;66.39;99671.75;10534053;28;20132;-52
2020/12/18 03:39:09;;;;;;;4.10;1.67;;;;;;;4.23;66.77;99692.38;10518317;28;20384;-53
2020/12/18 03:44:17;;;;;;;3.50;1.58;;;;;;;4.25;66.38;99695.72;10498468;28;20095;-54
2020/12/18 03:49:20;;;;;;;3.65;1.55;;;;;;;4.18;66.14;99702.22;10498968;28;20056;-51
2020/12/18 03:54:27;;;;;;;3.97;1.70;;;;;;;4.20;66.46;99703.81;10462180;28;20542;-54
2020/12/18 03:59:44;;;;;;;4.55;1.70;;;;;;;4.18;66.55;99699.59;10471664;28;20593;-54
2020/12/18 04:05:01;;;;;;;4.25;1.65;;;;;;;4.13;66.09;99705.94;10455428;28;20422;-53
2020/12/18 04:10:03;;;;;;;4.10;1.67;;;;;;;4.00;66.40;99706.72;10455269;28;20394;-54
2020/12/18 04:15:14;;;;;;;4.10;1.58;;;;;;;4.07;66.24;99708.06;10463889;28;20052;-55
2020/12/18 04:20:23;;;;;;;5.35;2.05;;;;;;;4.09;66.69;99714.81;10454472;28;20104;-52
2020/12/18 04:25:44;;;;;;;6.10;2.20;;;;;;;4.11;65.57;99715.56;10492846;28;20052;-53
2020/12/18 04:30:47;;;;;;;3.83;1.73;;;;;;;4.08;66.44;99709.72;10514656;28;20048;-52
2020/12/18 04:35:50;;;;;;;3.80;1.40;;;;;;;4.25;65.88;99724.34;10544924;28;20109;-53
2020/12/18 04:40:58;;;;;;;3.38;1.35;;;;;;;4.13;65.52;99726.75;10512157;28;20048;-54
2020/12/18 04:46:17;;;;;;;4.47;1.80;;;;;;;4.08;66.17;99723.56;10504590;28;20093;-52
2020/12/18 04:51:21;;;;;;;4.18;1.95;;;;;;;4.23;65.78;99728.81;10504469;28;20543;-52
2020/12/18 04:56:35;;;;;;;5.18;2.05;;;;;;;4.23;66.34;99739.22;10505048;28;20075;-54
2020/12/18 05:01:43;;;;;;;7.03;2.20;;;;;;;4.40;65.97;99746.84;10501280;28;20543;-55
2020/12/18 05:06:47;;;;;;;6.10;2.13;;;;;;;4.58;65.43;99740.56;10504263;28;20053;-56
2020/12/18 05:12:04;;;;;;;4.93;1.70;;;;;;;4.65;64.84;99743.66;10504793;28;20052;-54
2020/12/18 05:17:08;;;;;;;4.55;2.10;;;;;;;4.61;65.96;99750.78;10508572;28;20298;-62
2020/12/18 05:22:11;;;;;;;15.38;6.78;;;;;;;4.59;65.46;99749.22;10507678;28;20129;-54
2020/12/18 05:27:31;;;;;;;30.75;12.80;;;;;;;4.66;66.13;99757.50;10479435;28;20118;-55
2020/12/18 05:32:34;;;;;;;5.18;2.08;;;;;;;4.85;65.39;99758.06;10473661;28;20080;-53
2020/12/18 05:37:40;;;;;;;4.60;2.00;;;;;;;4.99;64.90;99760.69;10475616;28;20049;-53
2020/12/18 05:43:14;;;;;;;5.20;1.80;;;;;;;5.14;64.90;99763.25;10508067;28;20063;-57
2020/12/18 05:48:20;;;;;;;6.72;2.80;;;;;;;5.16;64.90;99750.97;10502166;28;20095;-53
2020/12/18 05:53:35;;;;;;;4.47;1.88;;;;;;;5.05;64.92;99757.69;10502165;28;20492;-52
2020/12/18 05:58:50;;;;;;;4.60;1.95;;;;;;;5.00;64.83;99757.13;10501920;28;20121;-55
2020/12/18 06:04:29;;;;;;;3.97;1.60;;;;;;;5.03;64.64;99751.72;10498319;28;20147;-53
2020/12/18 06:09:35;;;;;;;6.82;3.38;;;;;;;4.98;65.30;99758.97;10501252;28;20060;-54
2020/12/18 06:14:37;;;;;;;7.27;2.87;;;;;;;4.98;65.44;99758.97;10501578;28;20059;-53
2020/12/18 06:19:50;;;;;;;9.77;4.95;;;;;;;5.13;65.05;99758.97;10501434;28;20186;-55
2020/12/18 06:24:56;;;;;;;5.93;2.90;;;;;;;5.24;64.80;99766.97;10500165;28;20044;-53
2020/12/18 06:30:18;;;;;;;8.48;3.53;;;;;;;5.25;64.81;99774.69;10499448;28;20054;-55
2020/12/18 06:35:39;;;;;;;4.43;1.90;;;;;;;5.31;64.76;99776.09;10499839;28;20102;-54
2020/12/18 06:41:21;;;;;;;3.60;1.60;;;;;;;5.33;64.35;99769.00;10463284;28;20057;-53
2020/12/18 06:46:38;;;;;;;6.55;2.95;;;;;;;5.35;64.22;99774.13;10481769;28;20044;-52
2020/12/18 06:51:50;;;;;;;6.07;2.03;;;;;;;5.40;64.26;99777.28;10500756;28;20049;-56
2020/12/18 06:57:22;;;;;;;5.00;1.80;;;;;;;5.44;63.94;99781.38;10475734;28;20138;-54
2020/12/18 07:02:36;;;;;;;4.65;1.50;;;;;;;5.27;64.28;99785.03;10459322;28;20485;-54
2020/12/18 07:07:41;;;;;;;4.07;1.45;;;;;;;5.30;64.33;99783.06;10488521;28;20443;-53
2020/12/18 07:12:49;;;;;;;4.40;2.10;;;;;;;5.40;64.25;99796.38;10458644;28;20051;-54
2020/12/18 07:17:52;;;;;;;4.72;2.00;;;;;;;5.51;64.71;99811.31;10457833;28;20056;-53
2020/12/18 07:22:54;;;;;;;5.30;2.10;;;;;;;5.44;64.75;99816.09;10466928;28;20135;-54
2020/12/18 07:27:57;;;;;;;4.60;2.10;;;;;;;5.43;64.03;99819.63;10500530;28;20072;-53
2020/12/18 07:32:59;;;;;;;6.93;2.33;;;;;;;5.43;64.45;99824.03;10498554;28;20052;-59
2020/12/18 07:38:01;;;;;;;6.43;3.08;;;;;;;5.44;64.20;99826.53;10499632;28;20044;-52
2020/12/18 07:43:07;;;;;;;12.65;5.32;;;;;;;5.49;64.22;99827.09;10498296;28;20056;-51
2020/12/18 07:48:11;;;;;;;6.22;3.03;;;;;;;5.44;63.52;99829.13;10501176;28;20037;-52
2020/12/18 07:53:13;;;;;;;5.65;2.40;;;;;;;5.51;63.72;99837.41;10497362;28;20063;-53
2020/12/18 07:58:15;;;;;;;4.57;2.40;;;;;;;5.57;63.75;99833.59;10495223;28;20048;-57
2020/12/18 08:03:18;;;;;;;7.35;2.65;;;;;;;5.56;64.02;99843.19;10498399;28;20048;-55
2020/12/18 08:08:21;;;;;;;7.70;3.77;;;;;;;5.53;63.78;99844.19;10499126;28;20109;-52
2020/12/18 08:13:26;;;;;;;7.53;2.80;;;;;;;5.56;63.59;99850.16;10485975;28;20394;-53
2020/12/18 08:18:28;;;;;;;4.80;2.25;;;;;;;5.53;64.29;99854.63;10455447;28;20103;-54
2020/12/18 08:23:33;;;;;;;6.97;3.00;;;;;;;5.48;63.92;99853.22;10468375;28;20075;-54
2020/12/18 08:28:36;;;;;;;7.25;2.65;;;;;;;5.41;64.19;99860.59;10497368;28;20041;-52
2020/12/18 08:33:46;;;;;;;4.70;2.07;;;;;;;5.42;63.74;99857.09;10532875;28;20055;-52
2020/12/18 08:39:07;;;;;;;6.28;2.63;;;;;;;5.39;64.08;99857.28;10519729;28;20697;-52
2020/12/18 08:44:10;;;;;;;6.95;3.22;;;;;;;5.19;63.50;99848.03;10462169;28;20052;-52
2020/12/18 08:49:14;;;;;;;5.13;2.70;;;;;;;5.05;64.28;99854.09;10498634;28;20442;-54
2020/12/18 08:54:32;;;;;;;6.40;3.05;;;;;;;5.10;64.25;99858.19;10497595;28;20048;-52
2020/12/18 08:59:34;;;;;;;6.22;2.90;;;;;;;5.03;64.06;99866.38;10496865;28;20135;-54
2020/12/18 09:04:35;;;;;;;4.82;2.67;;;;;;;5.13;64.00;99868.44;10496397;28;20518;-54
2020/12/18 09:09:53;;;;;;;5.15;2.55;;;;;;;5.24;64.10;99863.41;10501918;28;20052;-53
2020/12/18 09:14:54;;;;;;;6.90;2.55;;;;;;;5.24;64.22;99871.22;10504876;28;20044;-52
2020/12/18 09:19:56;;;;;;;5.85;2.60;;;;;;;5.39;63.84;99874.66;10502647;28;20056;-54
2020/12/18 09:25:03;;;;;;;4.30;2.10;;;;;;;5.38;63.50;99888.63;10500340;28;20202;-53
2020/12/18 09:30:06;;;;;;;5.20;2.63;;;;;;;5.44;63.31;99886.50;10509422;28;20088;-54
2020/12/18 09:35:08;;;;;;;5.93;2.45;;;;;;;5.39;63.43;99888.56;10544326;28;20043;-53
2020/12/18 09:40:10;;;;;;;6.25;2.90;;;;;;;5.27;63.11;99891.91;10513841;28;20457;-54
2020/12/18 09:45:12;;;;;;;5.70;2.88;;;;;;;5.18;63.34;99890.69;10503540;28;20055;-60
2020/12/18 09:50:13;;;;;;;5.38;2.67;;;;;;;5.13;63.72;99897.09;10508475;28;20108;-57
2020/12/18 09:55:16;;;;;;;7.13;2.42;;;;;;;5.16;64.12;99900.34;10506864;28;20048;-56
2020/12/18 10:00:18;;;;;;;5.65;2.60;;;;;;;5.27;63.49;99891.91;10503654;28;20101;-52
2020/12/18 10:05:20;;;;;;;6.65;2.75;;;;;;;5.30;63.48;99892.56;10503313;28;20489;-54
2020/12/18 10:10:22;;;;;;;5.57;2.90;;;;;;;5.25;64.05;99901.56;10501879;28;20552;-54
2020/12/18 10:15:25;;;;;;;6.32;3.17;;;;;;;5.36;63.22;99899.16;10500683;28;20044;-52
2020/12/18 10:20:27;;;;;;;6.00;2.85;;;;;;;5.32;63.14;99908.91;10501224;28;20139;-54
2020/12/18 10:25:29;;;;;;;7.07;3.17;;;;;;;5.21;63.38;99902.69;10501936;28;20048;-52
2020/12/18 10:30:31;;;;;;;9.02;3.05;;;;;;;5.30;63.58;99899.53;10509888;28;20043;-52
2020/12/18 10:35:33;;;;;;;6.00;2.88;;;;;;;5.41;62.98;99891.06;10543031;28;20070;-55
2020/12/18 10:40:35;;;;;;;9.25;3.20;;;;;;;5.47;62.88;99894.13;10510493;28;20347;-52
2020/12/18 10:45:37;;;;;;;5.68;3.00;;;;;;;5.37;62.77;99903.44;10485688;28;20059;-53
2020/12/18 10:50:38;;;;;;;6.72;2.75;;;;;;;5.36;63.19;99899.16;10500686;28;20048;-54
2020/12/18 10:55:41;;;;;;;6.72;3.10;;;;;;;5.44;62.99;99896.91;10500709;28;20060;-52
2020/12/18 11:00:43;;;;;;;8.32;3.42;;;;;;;5.43;62.53;99904.84;10502952;28;20047;-53
2020/12/18 11:05:45;;;;;;;7.65;3.40;;;;;;;5.54;62.73;99912.84;10502189;28;20401;-55
2020/12/18 11:10:48;;;;;;;7.80;3.75;;;;;;;5.56;62.61;99907.53;10498134;28;20106;-53
2020/12/18 11:15:49;;;;;;;6.38;2.80;;;;;;;5.46;62.47;99910.72;10497860;28;20179;-52
2020/12/18 11:20:51;;;;;;;5.88;2.88;;;;;;;5.44;62.59;99914.34;10501665;28;20040;-53
2020/12/18 11:25:53;;;;;;;6.05;2.63;;;;;;;5.47;62.42;99917.59;10496417;28;20434;-54
2020/12/18 11:30:55;;;;;;;5.20;2.63;;;;;;;5.41;62.00;99923.16;10497366;28;20087;-52
2020/12/18 11:35:57;;;;;;;6.93;2.88;;;;;;;5.25;62.10;99918.03;10496240;28;20056;-52
2020/12/18 11:41:00;;;;;;;5.38;2.33;;;;;;;5.12;62.15;99911.06;10495931;28;20421;-52
2020/12/18 11:46:02;;;;;;;5.90;2.80;;;;;;;5.16;62.83;99922.97;10495847;28;20461;-53
2020/12/18 11:51:04;;;;;;;8.27;2.90;;;;;;;5.20;62.17;99914.91;10500014;28;20067;-53
2020/12/18 11:56:06;;;;;;;9.07;3.78;;;;;;;5.33;62.04;99925.41;10498359;28;20052;-54
2020/12/18 12:01:08;;;;;;;8.93;4.75;;;;;;;5.29;61.47;99929.97;10498237;28;20461;-54
2020/12/18 12:06:10;;;;;;;15.75;7.88;;;;;;;5.22;61.58;99930.44;10497795;28;20135;-52
2020/12/18 12:11:15;;;;;;;15.88;9.50;;;;;;;5.22;62.21;99935.63;10498156;28;20135;-54
2020/12/18 12:16:17;;;;;;;15.52;7.05;;;;;;;5.19;61.77;99933.22;10496987;28;20091;-53
2020/12/18 12:21:18;;;;;;;9.13;5.03;;;;;;;5.25;61.38;99935.47;10499488;28;20041;-52
2020/12/18 12:26:21;;;;;;;8.73;4.55;;;;;;;5.02;61.50;99937.66;10498262;28;20078;-55
2020/12/18 12:31:23;;;;;;;8.95;4.53;;;;;;;5.13;61.63;99949.22;10498470;28;20477;-54
2020/12/18 12:36:26;;;;;;;8.90;4.05;;;;;;;5.21;61.84;99949.59;10498050;28;20052;-52
2020/12/18 12:41:28;;;;;;;6.37;3.00;;;;;;;5.15;61.63;99952.56;10495972;28;20090;-53
2020/12/18 12:46:36;;;;;;;7.40;3.65;;;;;;;5.15;61.01;99956.00;10504286;28;20098;-54
2020/12/18 12:51:38;;;;;;;7.53;3.10;;;;;;;5.17;61.50;99961.13;10507549;28;20055;-52
2020/12/18 12:56:41;;;;;;;6.50;3.22;;;;;;;5.23;60.89;99960.75;10505310;28;20089;-52
2020/12/18 13:01:42;;;;;;;7.53;4.17;;;;;;;5.22;61.51;99956.50;10505208;28;20052;-52
2020/12/18 13:06:44;;;;;;;6.97;3.45;;;;;;;5.13;60.95;99970.06;10505200;28;20534;-52
2020/12/18 13:11:46;;;;;;;6.75;3.55;;;;;;;5.11;61.03;99966.69;10502963;28;20047;-55
2020/12/18 13:16:48;;;;;;;8.48;3.75;;;;;;;5.14;61.06;99956.94;10504874;28;20425;-54
2020/12/18 13:21:49;;;;;;;7.00;3.53;;;;;;;5.07;61.13;99951.25;10503448;28;20040;-55
2020/12/18 13:26:55;;;;;;;6.85;3.30;;;;;;;5.02;61.16;99955.91;10503804;28;20063;-52
2020/12/18 13:31:57;;;;;;;9.10;3.92;;;;;;;4.92;61.56;99956.50;10518365;28;20056;-52
2020/12/18 13:37:02;;;;;;;9.25;4.22;;;;;;;5.05;61.06;99954.88;10482832;28;20476;-52
2020/12/18 13:42:05;;;;;;;7.82;4.30;;;;;;;5.06;61.10;99959.16;10503681;28;20517;-54
2020/12/18 13:47:06;;;;;;;9.32;4.18;;;;;;;5.14;61.15;99967.38;10503623;28;20048;-52
2020/12/18 13:52:08;;;;;;;9.27;5.00;;;;;;;5.23;61.06;99972.06;10504420;28;20052;-55
2020/12/18 13:57:11;;;;;;;7.85;4.00;;;;;;;5.18;60.84;99974.09;10500964;28;20400;-54
2020/12/18 14:02:12;;;;;;;10.10;5.32;;;;;;;4.75;61.06;99975.72;10503250;28;20139;-55
2020/12/18 14:07:14;;;;;;;10.82;4.63;;;;;;;4.51;61.88;99983.97;10501669;28;20060;-53
2020/12/18 14:12:17;;;;;;;10.80;5.95;;;;;;;4.08;60.59;99983.72;10503808;28;20060;-52
2020/12/18 14:17:19;;;;;;;8.20;3.63;;;;;;;3.78;62.05;99980.97;10502790;28;20135;-52
2020/12/18 14:22:21;;;;;;;8.48;4.15;;;;;;;3.62;61.43;99987.91;10500966;28;20135;-52
2020/12/18 14:27:24;;;;;;;8.63;3.92;;;;;;;3.42;62.25;99992.38;10497758;28;20053;-52
2020/12/18 14:32:26;;;;;;;12.13;4.57;;;;;;;3.25;62.00;99994.16;10499570;28;20052;-53
2020/12/18 14:37:27;;;;;;;9.50;5.47;;;;;;;3.39;63.10;99987.34;10501752;28;20155;-52
2020/12/18 14:42:30;;;;;;;12.77;5.93;;;;;;;3.63;62.86;99985.25;10499722;28;20086;-53
2020/12/18 14:47:32;;;;;;;7.40;4.50;;;;;;;3.74;63.20;99991.63;10500797;28;20405;-53
2020/12/18 14:52:34;;;;;;;14.80;8.25;;;;;;;3.73;62.63;99985.59;10501036;28;20044;-55
2020/12/18 14:57:37;;;;;;;11.63;5.70;;;;;;;3.71;63.15;99991.81;10501356;28;20044;-52
2020/12/18 15:02:38;;;;;;;11.70;6.50;;;;;;;3.69;63.21;99984.06;10500755;28;20057;-54
2020/12/18 15:07:40;;;;;;;10.98;5.22;;;;;;;3.72;62.30;99986.50;10496487;28;20056;-54
2020/12/18 15:12:43;;;;;;;12.10;6.25;;;;;;;3.45;62.17;99981.00;10498693;28;20052;-52
2020/12/18 15:17:45;;;;;;;13.37;5.90;;;;;;;3.47;63.55;99984.34;10499727;28;20524;-55
2020/12/18 15:22:47;;;;;;;12.95;6.18;;;;;;;3.63;63.39;99984.38;10498558;28;20110;-55
2020/12/18 15:27:50;;;;;;;12.33;6.03;;;;;;;3.83;63.29;99991.16;10498632;28;20460;-53
2020/12/18 15:32:51;;;;;;;11.27;5.95;;;;;;;3.87;63.27;100003.91;10527736;28;20079;-55
2020/12/18 15:37:53;;;;;;;9.45;5.05;;;;;;;3.89;62.70;99991.66;10531012;28;20044;-54
2020/12/18 15:42:56;;;;;;;11.23;4.50;;;;;;;3.90;62.96;99984.69;10500070;28;20098;-53
2020/12/18 15:47:57;;;;;;;14.88;7.05;;;;;;;3.86;63.49;99991.00;10499664;28;20440;-56
2020/12/18 15:53:00;;;;;;;14.85;5.50;;;;;;;3.90;62.79;99982.09;10501576;28;20370;-56
2020/12/18 15:58:03;;;;;;;11.18;5.82;;;;;;;3.91;63.04;99981.19;10498246;28;20474;-60
2020/12/18 16:03:05;;;;;;;10.02;5.18;;;;;;;3.95;62.75;99987.91;10483071;28;20049;-55
2020/12/18 16:08:06;;;;;;;13.57;5.93;;;;;;;3.98;63.16;100002.50;10456727;28;20045;-55
2020/12/18 16:13:09;;;;;;;10.27;4.97;;;;;;;4.00;62.41;99998.06;10456125;28;20045;-53
2020/12/18 16:18:10;;;;;;;9.35;5.00;;;;;;;3.97;62.25;99996.44;10461383;28;20048;-53
2020/12/18 16:23:12;;;;;;;10.73;4.82;;;;;;;3.95;62.40;100003.50;10477113;28;20459;-55
2020/12/18 16:28:15;;;;;;;10.75;5.10;;;;;;;3.97;62.45;99993.00;10511440;28;20508;-55
2020/12/18 16:33:16;;;;;;;11.32;4.97;;;;;;;4.04;61.76;100000.41;10543076;28;20052;-56
2020/12/18 16:38:18;;;;;;;8.23;4.35;;;;;;;4.00;61.89;99993.69;10539979;28;20040;-56
2020/12/18 16:43:23;;;;;;;12.77;5.32;;;;;;;3.98;61.95;99994.72;10511338;28;20059;-54
2020/12/18 16:48:24;;;;;;;10.60;4.60;;;;;;;3.88;61.15;99997.81;10511837;28;20055;-55
2020/12/18 16:53:26;;;;;;;10.88;4.88;;;;;;;3.79;62.32;99997.44;10511222;28;20040;-55
2020/12/18 16:58:28;;;;;;;12.15;5.22;;;;;;;3.64;61.56;99994.72;10502484;28;20451;-55
2020/12/18 17:03:30;;;;;;;12.05;5.40;;;;;;;3.69;61.33;99995.34;10470871;28;20476;-56
2020/12/18 17:08:32;;;;;;;11.70;5.40;;;;;;;3.77;62.25;99991.47;10469377;28;20440;-56
2020/12/18 17:13:34;;;;;;;12.90;5.85;;;;;;;3.71;62.00;99987.44;10473270;28;20045;-56
2020/12/18 17:18:36;;;;;;;11.38;5.45;;;;;;;3.72;61.74;99988.28;10469539;28;20060;-54
2020/12/18 17:23:38;;;;;;;9.02;4.78;;;;;;;3.71;61.90;99978.78;10480996;28;20064;-56
2020/12/18 17:28:40;;;;;;;11.27;5.97;;;;;;;3.61;62.41;99976.69;10511129;28;20366;-54
2020/12/18 17:33:42;;;;;;;9.73;4.95;;;;;;;3.64;62.28;99976.53;10504114;28;20048;-53
2020/12/18 17:38:44;;;;;;;11.38;5.40;;;;;;;3.72;61.85;99975.28;10502441;28;20056;-54
2020/12/18 17:43:46;;;;;;;11.15;5.10;;;;;;;3.75;62.13;99980.31;10504470;28;20051;-55
2020/12/18 17:48:48;;;;;;;9.77;5.65;;;;;;;3.75;61.69;99983.75;10503620;28;20393;-54
2020/12/18 17:53:49;;;;;;;10.73;5.05;;;;;;;3.72;62.05;99993.47;10503168;28;20044;-54
2020/12/18 17:58:52;;;;;;;9.52;5.32;;;;;;;3.64;61.37;99991.28;10502349;28;20071;-54
2020/12/18 18:03:54;;;;;;;11.77;4.25;;;;;;;3.54;61.41;99980.53;10502433;28;20090;-54
2020/12/18 18:08:55;;;;;;;12.48;6.00;;;;;;;3.40;61.29;99982.97;10502393;28;20070;-56
2020/12/18 18:13:58;;;;;;;12.27;5.47;;;;;;;3.31;61.21;99975.66;10502698;28;20300;-56
2020/12/18 18:19:01;;;;;;;10.05;5.38;;;;;;;3.37;61.82;99962.34;10501802;28;20055;-53
2020/12/18 18:24:02;;;;;;;11.50;4.87;;;;;;;3.36;61.17;99971.06;10500954;28;20143;-56
2020/12/18 18:29:05;;;;;;;11.05;5.60;;;;;;;3.32;61.20;99964.34;10501332;28;20045;-53
2020/12/18 18:34:07;;;;;;;10.07;4.97;;;;;;;3.18;61.78;99976.28;10540728;28;20059;-54
2020/12/18 18:39:08;;;;;;;12.98;6.40;;;;;;;3.15;61.85;99973.84;10519968;28;20047;-56
2020/12/18 18:44:11;;;;;;;14.18;6.32;;;;;;;3.23;61.82;99971.69;10500353;28;20604;-55
2020/12/18 18:49:13;;;;;;;10.95;6.15;;;;;;;3.15;62.26;99979.03;10500847;28;20397;-54
2020/12/18 18:54:15;;;;;;;13.13;6.17;;;;;;;3.10;62.53;99974.97;10501088;28;20493;-54
2020/12/18 18:59:18;;;;;;;14.20;7.03;;;;;;;3.12;62.64;99971.38;10500334;28;20492;-54
2020/12/18 19:04:19;;;;;;;15.02;7.68;;;;;;;3.16;62.18;99979.88;10499634;28;20052;-53
2020/12/18 19:09:21;;;;;;;13.43;6.85;;;;;;;3.07;62.19;99991.53;10500522;28;20056;-54
2020/12/18 19:14:24;;;;;;;16.60;7.05;;;;;;;3.05;61.83;99983.00;10499680;28;20048;-55
2020/12/18 19:19:27;;;;;;;12.68;5.78;;;;;;;3.07;61.75;99975.97;10499871;28;20055;-58
2020/12/18 19:24:29;;;;;;;13.43;6.57;;;;;;;2.90;62.34;99979.41;10500291;28;20472;-54
2020/12/18 19:29:32;;;;;;;12.98;6.20;;;;;;;2.91;62.29;99969.84;10501233;28;20045;-56
2020/12/18 19:34:33;;;;;;;11.68;5.45;;;;;;;2.95;62.47;99980.00;10541559;28;20060;-55
2020/12/18 19:39:35;;;;;;;10.50;5.22;;;;;;;2.95;62.20;99977.41;10506485;28;20058;-55
2020/12/18 19:44:37;;;;;;;15.80;6.57;;;;;;;3.02;62.73;99982.28;10498383;28;20048;-54
2020/12/18 19:49:39;;;;;;;13.40;7.00;;;;;;;3.10;62.71;99986.19;10500183;28;20067;-55
2020/12/18 19:54:41;;;;;;;14.82;7.22;;;;;;;3.19;61.83;99985.75;10497498;28;20055;-53
2020/12/18 19:59:44;;;;;;;14.60;7.13;;;;;;;3.35;61.68;99990.16;10497918;28;20056;-53
2020/12/18 20:04:46;;;;;;;13.30;6.88;;;;;;;3.30;61.43;99986.97;10498500;28;20543;-55
2020/12/18 20:09:48;;;;;;;12.40;6.32;;;;;;;3.15;62.05;99973.00;10498979;28;20106;-55
2020/12/18 20:14:51;;;;;;;15.63;8.00;;;;;;;3.15;61.73;99973.00;10498093;28;20052;-54
2020/12/18 20:19:53;;;;;;;19.67;9.80;;;;;;;3.17;61.99;99973.75;10497981;28;20044;-54
2020/12/18 20:24:54;;;;;;;17.20;8.27;;;;;;;3.16;62.13;99975.50;10498849;28;20473;-55
2020/12/18 20:29:57;;;;;;;17.27;7.30;;;;;;;3.09;61.52;99979.34;10494307;28;20060;-53
2020/12/18 20:34:58;;;;;;;17.10;8.13;;;;;;;3.07;61.39;99986.34;10462221;28;20151;-54
2020/12/18 20:40:00;;;;;;;16.95;8.02;;;;;;;3.15;62.10;99981.63;10482536;28;20045;-54
2020/12/18 20:45:04;;;;;;;15.40;7.22;;;;;;;3.07;61.75;99983.75;10497145;28;20500;-55
2020/12/18 20:50:07;;;;;;;15.52;7.90;;;;;;;2.95;61.86;99977.41;10496132;28;20048;-54
2020/12/18 20:55:09;;;;;;;14.10;6.47;;;;;;;2.87;62.26;99982.16;10496919;28;20060;-54
2020/12/18 21:00:11;;;;;;;14.55;6.90;;;;;;;2.81;62.54;99986.81;10497195;28;20053;-55
2020/12/18 21:05:13;;;;;;;15.70;7.43;;;;;;;2.83;62.09;99977.16;10500900;28;20475;-54
2020/12/18 21:10:15;;;;;;;13.32;6.05;;;;;;;2.90;62.51;99979.41;10504703;28;20096;-55
2020/12/18 21:15:18;;;;;;;12.35;6.47;;;;;;;2.91;62.39;99990.63;10504171;28;20109;-54
2020/12/18 21:20:20;;;;;;;12.88;6.05;;;;;;;2.88;61.95;99977.78;10503576;28;20473;-54
2020/12/18 21:25:21;;;;;;;15.85;6.95;;;;;;;2.83;62.50;99977.16;10503103;28;20048;-55
2020/12/18 21:30:24;;;;;;;17.85;6.93;;;;;;;2.68;62.21;99983.94;10503997;28;20052;-54
2020/12/18 21:35:25;;;;;;;13.63;6.93;;;;;;;2.72;61.97;99985.50;10506555;28;20056;-54
2020/12/18 21:40:27;;;;;;;13.88;6.20;;;;;;;2.57;62.31;99981.88;10506378;28;20487;-55
2020/12/18 21:45:30;;;;;;;12.40;5.32;;;;;;;2.52;61.99;99989.03;10504027;28;20052;-54
2020/12/18 21:50:31;;;;;;;14.90;6.93;;;;;;;2.45;62.82;99980.69;10504604;28;20040;-54
2020/12/18 21:55:33;;;;;;;12.10;4.90;;;;;;;2.38;62.11;99988.84;10503850;28;20069;-57
2020/12/18 22:00:35;;;;;;;11.35;5.55;;;;;;;2.21;62.73;99984.44;10502603;28;20052;-55
2020/12/18 22:05:37;;;;;;;14.45;6.05;;;;;;;2.10;62.51;99982.34;10504099;28;20048;-60
2020/12/18 22:10:39;;;;;;;14.77;7.72;;;;;;;2.10;63.32;99984.09;10502774;28;20405;-54
2020/12/18 22:15:41;;;;;;;14.25;6.95;;;;;;;2.10;63.11;99987.53;10501060;28;20075;-55
2020/12/18 22:20:43;;;;;;;14.90;6.18;;;;;;;2.07;62.67;99987.69;10502570;28;20048;-53
2020/12/18 22:25:45;;;;;;;11.13;5.70;;;;;;;1.97;62.17;99986.41;10501966;28;20067;-55
2020/12/18 22:30:47;;;;;;;15.20;6.70;;;;;;;1.95;62.62;99970.91;10501425;28;20504;-53
2020/12/18 22:35:49;;;;;;;13.93;6.65;;;;;;;1.95;62.77;99964.91;10500540;28;20086;-54
2020/12/18 22:40:51;;;;;;;13.20;6.13;;;;;;;1.95;62.80;99977.88;10500761;28;20048;-55
2020/12/18 22:45:53;;;;;;;16.52;8.35;;;;;;;1.93;63.11;99964.94;10500865;28;20055;-54
2020/12/18 22:50:55;;;;;;;17.58;7.55;;;;;;;1.89;62.27;99960.81;10501501;28;20041;-54
2020/12/18 22:55:56;;;;;;;15.45;7.65;;;;;;;1.94;62.31;99963.19;10501545;28;20067;-57
2020/12/18 23:00:59;;;;;;;14.75;7.43;;;;;;;2.05;62.66;99963.56;10503287;28;20101;-54
2020/12/18 23:06:01;;;;;;;15.18;6.32;;;;;;;2.05;63.21;99951.44;10499627;28;20567;-56
2020/12/18 23:11:03;;;;;;;12.75;6.25;;;;;;;2.07;62.36;99951.38;10500122;28;20456;-54
2020/12/18 23:16:05;;;;;;;16.10;6.63;;;;;;;2.07;63.08;99946.19;10499765;28;20052;-54
2020/12/18 23:21:08;;;;;;;14.15;6.32;;;;;;;2.14;62.99;99947.56;10499064;28;20049;-53
2020/12/18 23:26:11;;;;;;;16.85;6.97;;;;;;;2.20;62.60;99954.22;10498877;28;20496;-54
2020/12/18 23:31:15;;;;;;;13.50;6.25;;;;;;;2.24;63.08;99948.81;10498989;28;20040;-54
2020/12/18 23:36:17;;;;;;;11.82;5.97;;;;;;;2.34;63.08;99958.75;10499319;28;20052;-54
2020/12/18 23:41:19;;;;;;;13.23;5.82;;;;;;;2.36;62.95;99957.78;10498124;28;20044;-55
2020/12/18 23:46:21;;;;;;;13.63;4.97;;;;;;;2.38;62.42;99957.72;10499538;28;20049;-54